Terminal Aerodrome Forecast
Issued by NWS Wakefield, VA

Home | Current Version | Previous Version | Text Only | Print | Product List | Glossary On
Versions: 1 2 3 4 5 6 7 8 9 10 11 12 13 14 15 16 17 18 19 20 21 22 23 24 25 26
000
FTUS41 KAKQ 061246 AAA
TAFSBY
TAF AMD
KSBY 061246Z 0613/0712 01005KT 2SM -RA BR BKN015 OVC035
      TEMPO 0613/0615 5SM -RA BR SCT015 BKN035
     FM061500 34006KT P6SM SCT012 OVC035
      TEMPO 0615/0618 5SM -RA BR BKN018
     FM062300 VRB05KT P6SM OVC020=

USA.gov is the U.S. government's official web portal to all federal, state and local government web resources and services.